sensor_id;sensor_type;location;lat;lon;timestamp;P1;durP1;ratioP1;P2;durP2;ratioP2
47796;SDS011;33558;50.922;14.068;2024-01-06T00:00:40;33.13;;;16.53;;
47796;SDS011;33558;50.922;14.068;2024-01-06T00:03:08;32.93;;;16.53;;
47796;SDS011;33558;50.922;14.068;2024-01-06T00:05:35;29.67;;;16.53;;
47796;SDS011;33558;50.922;14.068;2024-01-06T00:08:01;36.60;;;17.17;;
47796;SDS011;33558;50.922;14.068;2024-01-06T00:10:28;35.93;;;16.87;;
47796;SDS011;33558;50.922;14.068;2024-01-06T00:12:54;33.10;;;15.50;;
47796;SDS011;33558;50.922;14.068;2024-01-06T00:15:22;32.50;;;15.93;;
47796;SDS011;33558;50.922;14.068;2024-01-06T00:17:49;34.23;;;16.63;;
47796;SDS011;33558;50.922;14.068;2024-01-06T00:20:17;34.53;;;17.43;;
47796;SDS011;33558;50.922;14.068;2024-01-06T00:22:43;34.20;;;18.07;;
47796;SDS011;33558;50.922;14.068;2024-01-06T00:25:10;36.27;;;17.77;;
47796;SDS011;33558;50.922;14.068;2024-01-06T00:27:37;38.60;;;17.37;;
47796;SDS011;33558;50.922;14.068;2024-01-06T00:30:04;35.37;;;15.93;;
47796;SDS011;33558;50.922;14.068;2024-01-06T00:32:31;37.23;;;16.53;;
47796;SDS011;33558;50.922;14.068;2024-01-06T00:34:58;30.17;;;14.23;;
47796;SDS011;33558;50.922;14.068;2024-01-06T00:37:26;32.57;;;16.30;;
47796;SDS011;33558;50.922;14.068;2024-01-06T00:39:52;37.40;;;17.17;;
47796;SDS011;33558;50.922;14.068;2024-01-06T00:42:20;34.67;;;15.27;;
47796;SDS011;33558;50.922;14.068;2024-01-06T00:44:46;34.27;;;17.27;;
47796;SDS011;33558;50.922;14.068;2024-01-06T00:47:13;35.63;;;17.60;;
47796;SDS011;33558;50.922;14.068;2024-01-06T00:49:40;36.00;;;16.77;;
47796;SDS011;33558;50.922;14.068;2024-01-06T00:52:06;38.90;;;16.93;;
47796;SDS011;33558;50.922;14.068;2024-01-06T00:54:34;33.20;;;16.00;;
47796;SDS011;33558;50.922;14.068;2024-01-06T00:57:01;39.83;;;16.47;;
47796;SDS011;33558;50.922;14.068;2024-01-06T00:59:27;38.13;;;16.60;;
47796;SDS011;33558;50.922;14.068;2024-01-06T01:01:54;39.67;;;17.57;;
47796;SDS011;33558;50.922;14.068;2024-01-06T01:04:21;37.90;;;16.23;;
47796;SDS011;33558;50.922;14.068;2024-01-06T01:06:47;36.73;;;16.87;;
47796;SDS011;33558;50.922;14.068;2024-01-06T01:09:14;38.97;;;17.03;;
47796;SDS011;33558;50.922;14.068;2024-01-06T01:11:42;32.50;;;16.90;;
47796;SDS011;33558;50.922;14.068;2024-01-06T01:14:08;33.37;;;16.83;;
47796;SDS011;33558;50.922;14.068;2024-01-06T01:16:35;33.37;;;16.07;;
47796;SDS011;33558;50.922;14.068;2024-01-06T01:19:02;31.60;;;15.80;;
47796;SDS011;33558;50.922;14.068;2024-01-06T01:21:28;33.73;;;16.20;;
47796;SDS011;33558;50.922;14.068;2024-01-06T01:23:55;34.23;;;14.90;;
47796;SDS011;33558;50.922;14.068;2024-01-06T01:26:22;33.43;;;16.13;;
47796;SDS011;33558;50.922;14.068;2024-01-06T01:28:50;34.60;;;16.70;;
47796;SDS011;33558;50.922;14.068;2024-01-06T01:31:16;32.80;;;15.70;;
47796;SDS011;33558;50.922;14.068;2024-01-06T01:33:43;37.37;;;15.57;;
47796;SDS011;33558;50.922;14.068;2024-01-06T01:36:10;33.40;;;15.37;;
47796;SDS011;33558;50.922;14.068;2024-01-06T01:38:37;33.13;;;14.63;;
47796;SDS011;33558;50.922;14.068;2024-01-06T01:41:04;27.20;;;14.77;;
47796;SDS011;33558;50.922;14.068;2024-01-06T01:43:31;29.87;;;14.07;;
47796;SDS011;33558;50.922;14.068;2024-01-06T01:45:59;37.27;;;16.83;;
47796;SDS011;33558;50.922;14.068;2024-01-06T01:48:26;30.57;;;14.53;;
47796;SDS011;33558;50.922;14.068;2024-01-06T01:50:53;30.90;;;14.33;;
47796;SDS011;33558;50.922;14.068;2024-01-06T01:53:22;32.40;;;14.50;;
47796;SDS011;33558;50.922;14.068;2024-01-06T01:55:51;33.77;;;14.40;;
47796;SDS011;33558;50.922;14.068;2024-01-06T01:58:18;30.17;;;13.83;;
47796;SDS011;33558;50.922;14.068;2024-01-06T02:00:45;32.60;;;14.90;;
47796;SDS011;33558;50.922;14.068;2024-01-06T02:03:13;29.70;;;15.00;;
47796;SDS011;33558;50.922;14.068;2024-01-06T02:05:40;37.47;;;15.23;;
47796;SDS011;33558;50.922;14.068;2024-01-06T02:08:07;36.27;;;14.40;;
47796;SDS011;33558;50.922;14.068;2024-01-06T02:10:34;33.00;;;14.67;;
47796;SDS011;33558;50.922;14.068;2024-01-06T02:13:07;33.47;;;14.80;;
47796;SDS011;33558;50.922;14.068;2024-01-06T02:15:34;38.80;;;16.33;;
47796;SDS011;33558;50.922;14.068;2024-01-06T02:18:01;31.20;;;15.60;;
47796;SDS011;33558;50.922;14.068;2024-01-06T02:20:29;32.63;;;15.33;;
47796;SDS011;33558;50.922;14.068;2024-01-06T02:22:58;38.47;;;14.67;;
47796;SDS011;33558;50.922;14.068;2024-01-06T02:25:25;31.97;;;14.70;;
47796;SDS011;33558;50.922;14.068;2024-01-06T02:27:52;32.93;;;14.60;;
47796;SDS011;33558;50.922;14.068;2024-01-06T02:30:19;34.83;;;15.73;;
47796;SDS011;33558;50.922;14.068;2024-01-06T02:32:46;31.23;;;13.93;;
47796;SDS011;33558;50.922;14.068;2024-01-06T02:35:12;32.33;;;14.77;;
47796;SDS011;33558;50.922;14.068;2024-01-06T02:37:39;31.33;;;15.57;;
47796;SDS011;33558;50.922;14.068;2024-01-06T02:40:07;34.27;;;14.90;;
47796;SDS011;33558;50.922;14.068;2024-01-06T02:42:35;31.77;;;14.73;;
47796;SDS011;33558;50.922;14.068;2024-01-06T02:45:02;29.33;;;14.20;;
47796;SDS011;33558;50.922;14.068;2024-01-06T02:47:29;32.23;;;15.23;;
47796;SDS011;33558;50.922;14.068;2024-01-06T02:49:55;38.63;;;16.07;;
47796;SDS011;33558;50.922;14.068;2024-01-06T02:52:22;33.00;;;15.00;;
47796;SDS011;33558;50.922;14.068;2024-01-06T02:54:48;38.33;;;14.83;;
47796;SDS011;33558;50.922;14.068;2024-01-06T02:57:16;31.00;;;13.37;;
47796;SDS011;33558;50.922;14.068;2024-01-06T02:59:44;35.40;;;14.63;;
47796;SDS011;33558;50.922;14.068;2024-01-06T03:02:11;40.10;;;16.27;;
47796;SDS011;33558;50.922;14.068;2024-01-06T03:04:37;32.73;;;14.73;;
47796;SDS011;33558;50.922;14.068;2024-01-06T03:07:04;31.93;;;14.10;;
47796;SDS011;33558;50.922;14.068;2024-01-06T03:09:31;33.90;;;14.27;;
47796;SDS011;33558;50.922;14.068;2024-01-06T03:11:57;35.17;;;15.10;;
47796;SDS011;33558;50.922;14.068;2024-01-06T03:14:25;32.33;;;15.73;;
47796;SDS011;33558;50.922;14.068;2024-01-06T03:16:52;30.90;;;14.20;;
47796;SDS011;33558;50.922;14.068;2024-01-06T03:19:18;38.47;;;14.53;;
47796;SDS011;33558;50.922;14.068;2024-01-06T03:21:45;32.27;;;14.00;;
47796;SDS011;33558;50.922;14.068;2024-01-06T03:24:12;34.37;;;14.53;;
47796;SDS011;33558;50.922;14.068;2024-01-06T03:26:38;26.53;;;13.67;;
47796;SDS011;33558;50.922;14.068;2024-01-06T03:29:05;32.60;;;12.80;;
47796;SDS011;33558;50.922;14.068;2024-01-06T03:31:33;26.63;;;12.80;;
47796;SDS011;33558;50.922;14.068;2024-01-06T03:33:59;28.00;;;13.17;;
47796;SDS011;33558;50.922;14.068;2024-01-06T03:36:26;31.60;;;13.00;;
47796;SDS011;33558;50.922;14.068;2024-01-06T03:38:52;30.37;;;14.90;;
47796;SDS011;33558;50.922;14.068;2024-01-06T03:41:19;34.23;;;14.80;;
47796;SDS011;33558;50.922;14.068;2024-01-06T03:43:46;36.63;;;14.13;;
47796;SDS011;33558;50.922;14.068;2024-01-06T03:46:12;27.23;;;12.87;;
47796;SDS011;33558;50.922;14.068;2024-01-06T03:48:40;29.33;;;12.87;;
47796;SDS011;33558;50.922;14.068;2024-01-06T03:51:07;28.13;;;13.27;;
47796;SDS011;33558;50.922;14.068;2024-01-06T03:53:33;32.40;;;13.23;;
47796;SDS011;33558;50.922;14.068;2024-01-06T03:56:00;29.10;;;14.03;;
47796;SDS011;33558;50.922;14.068;2024-01-06T03:58:27;24.77;;;12.20;;
47796;SDS011;33558;50.922;14.068;2024-01-06T04:00:53;29.70;;;13.77;;
47796;SDS011;33558;50.922;14.068;2024-01-06T04:03:20;27.80;;;13.40;;
47796;SDS011;33558;50.922;14.068;2024-01-06T04:05:48;29.07;;;12.70;;
47796;SDS011;33558;50.922;14.068;2024-01-06T04:08:15;30.97;;;13.10;;
47796;SDS011;33558;50.922;14.068;2024-01-06T04:10:41;21.87;;;11.33;;
47796;SDS011;33558;50.922;14.068;2024-01-06T04:13:08;25.80;;;12.07;;
47796;SDS011;33558;50.922;14.068;2024-01-06T04:15:35;26.27;;;11.80;;
47796;SDS011;33558;50.922;14.068;2024-01-06T04:18:02;26.30;;;11.90;;
47796;SDS011;33558;50.922;14.068;2024-01-06T04:20:30;23.20;;;12.23;;
47796;SDS011;33558;50.922;14.068;2024-01-06T04:22:58;25.17;;;12.33;;
47796;SDS011;33558;50.922;14.068;2024-01-06T04:25:24;27.33;;;12.20;;
47796;SDS011;33558;50.922;14.068;2024-01-06T04:27:51;22.63;;;11.77;;
47796;SDS011;33558;50.922;14.068;2024-01-06T04:30:17;23.33;;;11.33;;
47796;SDS011;33558;50.922;14.068;2024-01-06T04:32:45;22.63;;;12.00;;
47796;SDS011;33558;50.922;14.068;2024-01-06T04:35:13;27.93;;;13.17;;
47796;SDS011;33558;50.922;14.068;2024-01-06T04:37:40;27.47;;;13.00;;
47796;SDS011;33558;50.922;14.068;2024-01-06T04:40:09;23.73;;;11.90;;
47796;SDS011;33558;50.922;14.068;2024-01-06T04:42:36;20.23;;;10.67;;
47796;SDS011;33558;50.922;14.068;2024-01-06T04:45:03;22.77;;;11.27;;
47796;SDS011;33558;50.922;14.068;2024-01-06T04:47:30;23.20;;;11.97;;
47796;SDS011;33558;50.922;14.068;2024-01-06T04:49:57;25.83;;;12.70;;
47796;SDS011;33558;50.922;14.068;2024-01-06T04:52:23;23.50;;;11.33;;
47796;SDS011;33558;50.922;14.068;2024-01-06T04:54:50;21.90;;;11.97;;
47796;SDS011;33558;50.922;14.068;2024-01-06T04:57:18;24.87;;;11.73;;
47796;SDS011;33558;50.922;14.068;2024-01-06T04:59:45;28.23;;;12.57;;
47796;SDS011;33558;50.922;14.068;2024-01-06T05:02:12;23.03;;;12.20;;
47796;SDS011;33558;50.922;14.068;2024-01-06T05:04:39;28.13;;;12.00;;
47796;SDS011;33558;50.922;14.068;2024-01-06T05:07:05;26.63;;;12.13;;
47796;SDS011;33558;50.922;14.068;2024-01-06T05:09:32;22.17;;;12.13;;
47796;SDS011;33558;50.922;14.068;2024-01-06T05:11:58;21.27;;;11.20;;
47796;SDS011;33558;50.922;14.068;2024-01-06T05:14:26;24.10;;;11.67;;
47796;SDS011;33558;50.922;14.068;2024-01-06T05:16:53;22.97;;;11.80;;
47796;SDS011;33558;50.922;14.068;2024-01-06T05:19:20;22.57;;;11.97;;
47796;SDS011;33558;50.922;14.068;2024-01-06T05:21:46;23.60;;;11.37;;
47796;SDS011;33558;50.922;14.068;2024-01-06T05:24:13;26.40;;;12.60;;
47796;SDS011;33558;50.922;14.068;2024-01-06T05:26:39;26.00;;;11.60;;
47796;SDS011;33558;50.922;14.068;2024-01-06T05:29:05;24.07;;;11.30;;
47796;SDS011;33558;50.922;14.068;2024-01-06T05:31:33;23.70;;;11.83;;
47796;SDS011;33558;50.922;14.068;2024-01-06T05:34:00;21.47;;;11.17;;
47796;SDS011;33558;50.922;14.068;2024-01-06T05:36:27;20.53;;;12.23;;
47796;SDS011;33558;50.922;14.068;2024-01-06T05:38:53;23.73;;;12.47;;
47796;SDS011;33558;50.922;14.068;2024-01-06T05:41:20;21.77;;;11.67;;
47796;SDS011;33558;50.922;14.068;2024-01-06T05:46:21;20.60;;;11.43;;
47796;SDS011;33558;50.922;14.068;2024-01-06T05:48:49;19.27;;;10.73;;
47796;SDS011;33558;50.922;14.068;2024-01-06T05:51:16;23.07;;;11.30;;
47796;SDS011;33558;50.922;14.068;2024-01-06T05:53:42;26.30;;;13.20;;
47796;SDS011;33558;50.922;14.068;2024-01-06T05:56:09;22.57;;;11.00;;
47796;SDS011;33558;50.922;14.068;2024-01-06T05:58:36;21.43;;;11.33;;
47796;SDS011;33558;50.922;14.068;2024-01-06T06:01:03;18.70;;;10.70;;
47796;SDS011;33558;50.922;14.068;2024-01-06T06:03:30;21.77;;;11.67;;
47796;SDS011;33558;50.922;14.068;2024-01-06T06:05:58;22.30;;;11.33;;
47796;SDS011;33558;50.922;14.068;2024-01-06T06:08:25;28.70;;;13.33;;
47796;SDS011;33558;50.922;14.068;2024-01-06T06:10:51;29.90;;;15.33;;
47796;SDS011;33558;50.922;14.068;2024-01-06T06:13:27;28.03;;;15.40;;
47796;SDS011;33558;50.922;14.068;2024-01-06T06:15:54;23.83;;;12.97;;
47796;SDS011;33558;50.922;14.068;2024-01-06T06:18:21;24.63;;;11.33;;
47796;SDS011;33558;50.922;14.068;2024-01-06T06:20:47;21.13;;;10.70;;
47796;SDS011;33558;50.922;14.068;2024-01-06T06:23:15;21.30;;;11.40;;
47796;SDS011;33558;50.922;14.068;2024-01-06T06:25:42;21.23;;;11.27;;
47796;SDS011;33558;50.922;14.068;2024-01-06T06:28:08;24.07;;;12.03;;
47796;SDS011;33558;50.922;14.068;2024-01-06T06:30:35;22.60;;;11.90;;
47796;SDS011;33558;50.922;14.068;2024-01-06T06:33:02;25.60;;;12.00;;
47796;SDS011;33558;50.922;14.068;2024-01-06T06:35:28;24.20;;;11.70;;
47796;SDS011;33558;50.922;14.068;2024-01-06T06:37:55;23.83;;;11.37;;
47796;SDS011;33558;50.922;14.068;2024-01-06T06:40:23;23.07;;;11.47;;
47796;SDS011;33558;50.922;14.068;2024-01-06T06:42:50;27.07;;;12.90;;
47796;SDS011;33558;50.922;14.068;2024-01-06T06:45:16;23.30;;;12.00;;
47796;SDS011;33558;50.922;14.068;2024-01-06T06:47:45;21.17;;;11.43;;
47796;SDS011;33558;50.922;14.068;2024-01-06T06:50:12;24.43;;;12.00;;
47796;SDS011;33558;50.922;14.068;2024-01-06T06:52:39;23.40;;;11.10;;
47796;SDS011;33558;50.922;14.068;2024-01-06T06:55:06;23.97;;;11.33;;
47796;SDS011;33558;50.922;14.068;2024-01-06T06:57:35;22.87;;;11.47;;
47796;SDS011;33558;50.922;14.068;2024-01-06T07:00:02;26.23;;;11.27;;
47796;SDS011;33558;50.922;14.068;2024-01-06T07:02:29;22.27;;;11.40;;
47796;SDS011;33558;50.922;14.068;2024-01-06T07:04:56;23.43;;;12.03;;
47796;SDS011;33558;50.922;14.068;2024-01-06T07:07:23;20.50;;;11.03;;
47796;SDS011;33558;50.922;14.068;2024-01-06T07:09:50;21.37;;;9.73;;
47796;SDS011;33558;50.922;14.068;2024-01-06T07:12:17;24.87;;;10.83;;
47796;SDS011;33558;50.922;14.068;2024-01-06T07:14:45;20.00;;;10.83;;
47796;SDS011;33558;50.922;14.068;2024-01-06T07:17:12;27.67;;;12.20;;
47796;SDS011;33558;50.922;14.068;2024-01-06T07:19:39;22.83;;;11.27;;
47796;SDS011;33558;50.922;14.068;2024-01-06T07:22:05;25.93;;;11.27;;
47796;SDS011;33558;50.922;14.068;2024-01-06T07:24:32;23.90;;;12.20;;
47796;SDS011;33558;50.922;14.068;2024-01-06T07:26:58;24.17;;;11.33;;
47796;SDS011;33558;50.922;14.068;2024-01-06T07:29:25;21.87;;;11.33;;
47796;SDS011;33558;50.922;14.068;2024-01-06T07:31:53;19.13;;;11.33;;
47796;SDS011;33558;50.922;14.068;2024-01-06T07:34:20;23.83;;;12.03;;
47796;SDS011;33558;50.922;14.068;2024-01-06T07:36:46;20.87;;;10.57;;
47796;SDS011;33558;50.922;14.068;2024-01-06T07:39:13;18.97;;;10.37;;
47796;SDS011;33558;50.922;14.068;2024-01-06T07:41:39;19.07;;;10.57;;
47796;SDS011;33558;50.922;14.068;2024-01-06T07:44:06;19.37;;;9.77;;
47796;SDS011;33558;50.922;14.068;2024-01-06T07:46:33;19.67;;;9.60;;
47796;SDS011;33558;50.922;14.068;2024-01-06T07:49:01;18.47;;;9.83;;
47796;SDS011;33558;50.922;14.068;2024-01-06T07:51:28;18.07;;;10.00;;
47796;SDS011;33558;50.922;14.068;2024-01-06T07:53:55;16.47;;;9.27;;
47796;SDS011;33558;50.922;14.068;2024-01-06T07:56:21;18.17;;;10.57;;
47796;SDS011;33558;50.922;14.068;2024-01-06T07:58:48;20.23;;;10.90;;
47796;SDS011;33558;50.922;14.068;2024-01-06T08:01:14;22.00;;;12.30;;
47796;SDS011;33558;50.922;14.068;2024-01-06T08:03:41;20.50;;;11.27;;
47796;SDS011;33558;50.922;14.068;2024-01-06T08:06:10;19.63;;;10.47;;
47796;SDS011;33558;50.922;14.068;2024-01-06T08:08:37;16.40;;;9.50;;
47796;SDS011;33558;50.922;14.068;2024-01-06T08:11:03;16.60;;;9.80;;
47796;SDS011;33558;50.922;14.068;2024-01-06T08:13:30;16.93;;;10.50;;
47796;SDS011;33558;50.922;14.068;2024-01-06T08:15:57;17.20;;;10.10;;
47796;SDS011;33558;50.922;14.068;2024-01-06T08:18:24;15.37;;;8.87;;
47796;SDS011;33558;50.922;14.068;2024-01-06T08:20:50;19.67;;;9.53;;
47796;SDS011;33558;50.922;14.068;2024-01-06T08:23:19;16.37;;;9.80;;
47796;SDS011;33558;50.922;14.068;2024-01-06T08:25:45;15.80;;;9.47;;
47796;SDS011;33558;50.922;14.068;2024-01-06T08:28:12;16.57;;;9.73;;
47796;SDS011;33558;50.922;14.068;2024-01-06T08:30:39;19.63;;;10.03;;
47796;SDS011;33558;50.922;14.068;2024-01-06T08:33:06;19.93;;;10.73;;
47796;SDS011;33558;50.922;14.068;2024-01-06T08:35:33;17.83;;;10.67;;
47796;SDS011;33558;50.922;14.068;2024-01-06T08:38:05;21.47;;;11.87;;
47796;SDS011;33558;50.922;14.068;2024-01-06T08:40:33;19.23;;;11.10;;
47796;SDS011;33558;50.922;14.068;2024-01-06T08:43:00;22.77;;;11.10;;
47796;SDS011;33558;50.922;14.068;2024-01-06T08:45:26;19.67;;;12.17;;
47796;SDS011;33558;50.922;14.068;2024-01-06T08:47:53;23.63;;;11.73;;
47796;SDS011;33558;50.922;14.068;2024-01-06T08:50:19;21.10;;;11.70;;
47796;SDS011;33558;50.922;14.068;2024-01-06T08:52:46;24.57;;;13.13;;
47796;SDS011;33558;50.922;14.068;2024-01-06T08:55:12;24.30;;;11.70;;
47796;SDS011;33558;50.922;14.068;2024-01-06T08:57:40;23.90;;;13.37;;
47796;SDS011;33558;50.922;14.068;2024-01-06T09:00:07;24.13;;;13.07;;
47796;SDS011;33558;50.922;14.068;2024-01-06T09:02:36;20.77;;;12.03;;
47796;SDS011;33558;50.922;14.068;2024-01-06T09:05:03;23.63;;;12.27;;
47796;SDS011;33558;50.922;14.068;2024-01-06T09:07:30;21.63;;;12.17;;
47796;SDS011;33558;50.922;14.068;2024-01-06T09:09:57;23.33;;;13.07;;
47796;SDS011;33558;50.922;14.068;2024-01-06T09:12:24;32.40;;;15.27;;
47796;SDS011;33558;50.922;14.068;2024-01-06T09:14:52;26.30;;;13.73;;
47796;SDS011;33558;50.922;14.068;2024-01-06T09:17:19;27.50;;;13.60;;
47796;SDS011;33558;50.922;14.068;2024-01-06T09:19:45;26.43;;;14.37;;
47796;SDS011;33558;50.922;14.068;2024-01-06T09:22:12;27.17;;;14.50;;
47796;SDS011;33558;50.922;14.068;2024-01-06T09:24:40;33.50;;;14.90;;
47796;SDS011;33558;50.922;14.068;2024-01-06T09:27:06;29.43;;;14.67;;
47796;SDS011;33558;50.922;14.068;2024-01-06T09:29:33;29.70;;;15.53;;
47796;SDS011;33558;50.922;14.068;2024-01-06T09:32:01;34.40;;;16.03;;
47796;SDS011;33558;50.922;14.068;2024-01-06T09:34:27;32.73;;;15.87;;
47796;SDS011;33558;50.922;14.068;2024-01-06T09:36:54;35.73;;;14.67;;
47796;SDS011;33558;50.922;14.068;2024-01-06T09:39:21;30.10;;;14.80;;
47796;SDS011;33558;50.922;14.068;2024-01-06T09:41:47;28.73;;;13.97;;
47796;SDS011;33558;50.922;14.068;2024-01-06T09:44:14;29.47;;;15.73;;
47796;SDS011;33558;50.922;14.068;2024-01-06T09:46:41;31.13;;;15.87;;
47796;SDS011;33558;50.922;14.068;2024-01-06T09:49:10;28.23;;;15.30;;
47796;SDS011;33558;50.922;14.068;2024-01-06T09:51:38;31.03;;;14.83;;
47796;SDS011;33558;50.922;14.068;2024-01-06T09:54:07;27.57;;;14.93;;
47796;SDS011;33558;50.922;14.068;2024-01-06T09:56:35;30.53;;;15.33;;
47796;SDS011;33558;50.922;14.068;2024-01-06T09:59:01;29.30;;;15.77;;
47796;SDS011;33558;50.922;14.068;2024-01-06T10:01:29;31.70;;;16.80;;
47796;SDS011;33558;50.922;14.068;2024-01-06T10:03:55;32.90;;;16.47;;
47796;SDS011;33558;50.922;14.068;2024-01-06T10:06:23;31.63;;;15.37;;
47796;SDS011;33558;50.922;14.068;2024-01-06T10:08:50;32.00;;;15.57;;
47796;SDS011;33558;50.922;14.068;2024-01-06T10:11:18;28.23;;;14.63;;
47796;SDS011;33558;50.922;14.068;2024-01-06T10:13:47;33.13;;;16.27;;
47796;SDS011;33558;50.922;14.068;2024-01-06T10:16:14;29.47;;;15.63;;
47796;SDS011;33558;50.922;14.068;2024-01-06T10:18:41;33.97;;;16.27;;
47796;SDS011;33558;50.922;14.068;2024-01-06T10:21:07;29.97;;;16.17;;
47796;SDS011;33558;50.922;14.068;2024-01-06T10:23:36;28.40;;;15.43;;
47796;SDS011;33558;50.922;14.068;2024-01-06T10:26:02;31.00;;;17.20;;
47796;SDS011;33558;50.922;14.068;2024-01-06T10:28:29;35.90;;;17.27;;
47796;SDS011;33558;50.922;14.068;2024-01-06T10:30:56;32.67;;;17.00;;
47796;SDS011;33558;50.922;14.068;2024-01-06T10:33:24;31.83;;;16.77;;
47796;SDS011;33558;50.922;14.068;2024-01-06T10:35:52;35.67;;;17.70;;
47796;SDS011;33558;50.922;14.068;2024-01-06T10:38:19;34.63;;;17.70;;
47796;SDS011;33558;50.922;14.068;2024-01-06T10:40:57;35.90;;;17.13;;
47796;SDS011;33558;50.922;14.068;2024-01-06T10:43:25;35.13;;;18.27;;
47796;SDS011;33558;50.922;14.068;2024-01-06T10:45:53;30.17;;;15.70;;
47796;SDS011;33558;50.922;14.068;2024-01-06T10:48:24;35.20;;;17.63;;
47796;SDS011;33558;50.922;14.068;2024-01-06T10:50:51;32.17;;;15.37;;
47796;SDS011;33558;50.922;14.068;2024-01-06T10:53:18;27.40;;;15.60;;
47796;SDS011;33558;50.922;14.068;2024-01-06T10:55:48;31.50;;;16.40;;
47796;SDS011;33558;50.922;14.068;2024-01-06T10:58:17;30.30;;;16.60;;
47796;SDS011;33558;50.922;14.068;2024-01-06T11:00:43;27.40;;;14.30;;
47796;SDS011;33558;50.922;14.068;2024-01-06T11:03:10;27.30;;;14.30;;
47796;SDS011;33558;50.922;14.068;2024-01-06T11:05:37;24.63;;;13.87;;
47796;SDS011;33558;50.922;14.068;2024-01-06T11:08:04;27.13;;;16.03;;
47796;SDS011;33558;50.922;14.068;2024-01-06T11:10:31;25.27;;;13.57;;
47796;SDS011;33558;50.922;14.068;2024-01-06T11:13:11;26.17;;;14.57;;
47796;SDS011;33558;50.922;14.068;2024-01-06T11:15:42;27.33;;;14.63;;
47796;SDS011;33558;50.922;14.068;2024-01-06T11:18:10;24.80;;;12.87;;
47796;SDS011;33558;50.922;14.068;2024-01-06T11:21:14;24.17;;;13.80;;
47796;SDS011;33558;50.922;14.068;2024-01-06T11:23:42;22.90;;;14.05;;
47796;SDS011;33558;50.922;14.068;2024-01-06T11:26:09;24.63;;;12.80;;
47796;SDS011;33558;50.922;14.068;2024-01-06T11:28:42;23.43;;;13.60;;
47796;SDS011;33558;50.922;14.068;2024-01-06T11:31:11;22.47;;;12.57;;
47796;SDS011;33558;50.922;14.068;2024-01-06T11:33:41;23.50;;;13.93;;
47796;SDS011;33558;50.922;14.068;2024-01-06T11:36:08;19.87;;;13.20;;
47796;SDS011;33558;50.922;14.068;2024-01-06T11:38:37;23.93;;;13.77;;
47796;SDS011;33558;50.922;14.068;2024-01-06T11:41:04;23.00;;;13.47;;
47796;SDS011;33558;50.922;14.068;2024-01-06T11:43:33;23.63;;;13.77;;
47796;SDS011;33558;50.922;14.068;2024-01-06T11:46:01;27.47;;;14.93;;
47796;SDS011;33558;50.922;14.068;2024-01-06T11:48:30;21.80;;;13.63;;
47796;SDS011;33558;50.922;14.068;2024-01-06T11:50:57;27.10;;;15.47;;
47796;SDS011;33558;50.922;14.068;2024-01-06T11:53:25;24.43;;;14.00;;
47796;SDS011;33558;50.922;14.068;2024-01-06T11:55:53;27.03;;;14.23;;
47796;SDS011;33558;50.922;14.068;2024-01-06T11:58:19;22.50;;;13.87;;
47796;SDS011;33558;50.922;14.068;2024-01-06T12:00:54;27.50;;;15.43;;
47796;SDS011;33558;50.922;14.068;2024-01-06T12:03:21;28.33;;;16.70;;
47796;SDS011;33558;50.922;14.068;2024-01-06T12:05:59;29.10;;;15.93;;
47796;SDS011;33558;50.922;14.068;2024-01-06T12:08:27;26.63;;;15.43;;
47796;SDS011;33558;50.922;14.068;2024-01-06T12:11:01;24.70;;;14.60;;
47796;SDS011;33558;50.922;14.068;2024-01-06T12:13:28;20.97;;;13.13;;
47796;SDS011;33558;50.922;14.068;2024-01-06T12:15:55;23.03;;;14.23;;
47796;SDS011;33558;50.922;14.068;2024-01-06T12:18:22;21.90;;;12.73;;
47796;SDS011;33558;50.922;14.068;2024-01-06T12:20:49;23.77;;;14.70;;
47796;SDS011;33558;50.922;14.068;2024-01-06T12:26:14;23.75;;;13.95;;
47796;SDS011;33558;50.922;14.068;2024-01-06T12:28:41;23.17;;;12.90;;
47796;SDS011;33558;50.922;14.068;2024-01-06T12:31:08;21.33;;;12.77;;
47796;SDS011;33558;50.922;14.068;2024-01-06T12:33:37;22.53;;;14.70;;
47796;SDS011;33558;50.922;14.068;2024-01-06T12:36:04;24.43;;;15.17;;
47796;SDS011;33558;50.922;14.068;2024-01-06T12:38:31;21.27;;;12.63;;
47796;SDS011;33558;50.922;14.068;2024-01-06T12:40:58;21.60;;;13.80;;
47796;SDS011;33558;50.922;14.068;2024-01-06T12:43:25;26.17;;;15.20;;
47796;SDS011;33558;50.922;14.068;2024-01-06T12:45:52;25.40;;;15.80;;
47796;SDS011;33558;50.922;14.068;2024-01-06T12:48:19;27.40;;;17.40;;
47796;SDS011;33558;50.922;14.068;2024-01-06T12:50:46;23.03;;;15.33;;
47796;SDS011;33558;50.922;14.068;2024-01-06T12:53:12;23.10;;;13.53;;
47796;SDS011;33558;50.922;14.068;2024-01-06T12:55:40;19.50;;;12.87;;
47796;SDS011;33558;50.922;14.068;2024-01-06T12:58:07;23.83;;;14.33;;
47796;SDS011;33558;50.922;14.068;2024-01-06T13:00:35;21.37;;;14.70;;
47796;SDS011;33558;50.922;14.068;2024-01-06T13:03:01;22.77;;;14.57;;
47796;SDS011;33558;50.922;14.068;2024-01-06T13:05:29;22.27;;;14.43;;
47796;SDS011;33558;50.922;14.068;2024-01-06T13:07:56;25.03;;;15.90;;
47796;SDS011;33558;50.922;14.068;2024-01-06T13:10:23;21.93;;;14.70;;
47796;SDS011;33558;50.922;14.068;2024-01-06T13:12:49;22.87;;;15.33;;
47796;SDS011;33558;50.922;14.068;2024-01-06T13:15:16;22.80;;;14.77;;
47796;SDS011;33558;50.922;14.068;2024-01-06T13:17:44;22.87;;;15.03;;
47796;SDS011;33558;50.922;14.068;2024-01-06T13:20:11;24.13;;;14.93;;
47796;SDS011;33558;50.922;14.068;2024-01-06T13:22:38;25.20;;;15.70;;
47796;SDS011;33558;50.922;14.068;2024-01-06T13:25:06;23.60;;;15.13;;
47796;SDS011;33558;50.922;14.068;2024-01-06T13:27:33;25.07;;;15.20;;
47796;SDS011;33558;50.922;14.068;2024-01-06T13:30:00;27.20;;;14.83;;
47796;SDS011;33558;50.922;14.068;2024-01-06T13:32:27;23.93;;;15.23;;
47796;SDS011;33558;50.922;14.068;2024-01-06T13:34:55;27.20;;;15.67;;
47796;SDS011;33558;50.922;14.068;2024-01-06T13:37:29;25.87;;;15.43;;
47796;SDS011;33558;50.922;14.068;2024-01-06T13:39:56;26.63;;;17.43;;
47796;SDS011;33558;50.922;14.068;2024-01-06T13:42:22;30.83;;;16.83;;
47796;SDS011;33558;50.922;14.068;2024-01-06T13:44:49;25.37;;;16.40;;
47796;SDS011;33558;50.922;14.068;2024-01-06T13:47:15;28.63;;;16.80;;
47796;SDS011;33558;50.922;14.068;2024-01-06T13:49:42;28.13;;;15.90;;
47796;SDS011;33558;50.922;14.068;2024-01-06T13:52:10;28.43;;;16.20;;
47796;SDS011;33558;50.922;14.068;2024-01-06T13:54:37;29.10;;;17.17;;
47796;SDS011;33558;50.922;14.068;2024-01-06T13:57:03;32.77;;;17.87;;
47796;SDS011;33558;50.922;14.068;2024-01-06T13:59:30;28.50;;;16.63;;
47796;SDS011;33558;50.922;14.068;2024-01-06T14:01:57;33.23;;;17.97;;
47796;SDS011;33558;50.922;14.068;2024-01-06T14:04:23;32.90;;;17.50;;
47796;SDS011;33558;50.922;14.068;2024-01-06T14:06:50;31.23;;;17.07;;
47796;SDS011;33558;50.922;14.068;2024-01-06T14:09:22;33.73;;;18.10;;
47796;SDS011;33558;50.922;14.068;2024-01-06T14:11:48;34.83;;;20.30;;
47796;SDS011;33558;50.922;14.068;2024-01-06T14:14:15;38.50;;;19.77;;